Strona główna
METAR-TAF:

METAR-TAF

Lotnisko :

Port lotniczy Jakuck

Jakuck, Rosja

Szerokość geograficzna: 62-01N, Długość geograficzna: 129-43E, wysokość: 103 m

Aktualna obserwacja pogody

Raport powstał 15 minut temu, godzina 15:00 UTC
Wiatr 4 kt od północny zachód
Temperatura 16°C
Wilgotność 77%
Ciśnienie 1010 hPa
Widzialność 10 km lub więcej
Brak chmur poniżej 1500 m i brak chmur cumulonimbus

METAR: UEEE 211500Z 31002MPS CAVOK 16/12 Q1010 R23/09//60 NOSIG RMK QFE749

czas: 00:15 (15:15 UTC)

Prognoza

Raport powstał 1 godzina i 15 minut temu, godzina 14:00 UTC
Prognoza ważna od 21 godzina 15 UTC do 22 godzina 21 UTC
Wiatr 6 kt od zachodnio-północny zachód w porywach dochodzący do 16 kt
Widzialność 10 km lub więcej
Brak chmur poniżej 1500 m i brak chmur cumulonimbus
Przejściowo
od 21 godzina 18 UTC do 21 godzina 22 UTC
Wiatr 2 kt z kierunków zmiennych
Widzialność: 0300 m
na wysokości 300 ft
mgła,

TAF: UEEE 211400Z 2115/2221 30003G08MPS CAVOK TX28/2206Z TN12/2118Z TEMPO 2118/2122 VRB01MPS 0300 FG VV003

Obserwacja i prognoza pogody dla ponad 4000 lotnisk (raport METAR i TAF).

Dostępne stacje oznaczono żółtymi i czerwonymi punktami na mapie.

Najedź kursorem aby zobaczyć nazwę stacji.

Kliknij aby zobaczyć obserwacje i prognozy pogody.

Aby zmienić mapę: kliknij na zielony przycisk z czarnym krzyżykiem, aby powiększyć; na zielony przycisk z myślnikiem, aby pomniejszyć; na zielone strzałki, aby przejść do map sąsiednich.


METAR-TAF: